Time;durP1;ratioP1;P1;durP2;ratioP2;P2;SDS_P1;SDS_P2;PMS_P1;PMS_P2;Temp;Humidity;BMP_temperature;BMP_pressure;BME280_temperature;BME280_humidity;BME280_pressure;Samples;Min_cycle;Max_cycle;Signal;HPM_P1;HPM_P2
2023/04/13 00:00:32;;;;;;;12.17;5.83;;;5.30;99.90;;;;;;5104971;28;20205;-78
2023/04/13 00:03:00;;;;;;;11.50;6.63;;;5.20;99.90;;;;;;5104562;28;20194;-78
2023/04/13 00:05:28;;;;;;;8.57;5.03;;;5.10;99.90;;;;;;5104862;28;20232;-78
2023/04/13 00:08:01;;;;;;;11.77;5.67;;;5.10;99.90;;;;;;5104897;28;20205;-78
2023/04/13 00:10:28;;;;;;;10.03;5.60;;;4.90;99.90;;;;;;5104119;28;20691;-78
2023/04/13 00:12:57;;;;;;;17.33;6.90;;;4.80;99.90;;;;;;5104839;28;20222;-77
2023/04/13 00:15:24;;;;;;;11.60;5.33;;;4.70;99.90;;;;;;5104507;28;20632;-77
2023/04/13 00:17:52;;;;;;;12.07;6.13;;;4.70;99.90;;;;;;5105056;28;20202;-78
2023/04/13 00:20:19;;;;;;;13.80;7.00;;;4.70;99.90;;;;;;5105674;28;20202;-78
2023/04/13 00:22:47;;;;;;;13.43;6.83;;;5.00;99.90;;;;;;5103821;28;20209;-78
2023/04/13 00:25:16;;;;;;;12.33;6.40;;;5.00;99.90;;;;;;5105073;28;20232;-78
2023/04/13 00:27:44;;;;;;;14.13;6.57;;;4.80;99.90;;;;;;5103372;28;20201;-77
2023/04/13 00:30:12;;;;;;;14.63;6.90;;;4.80;99.90;;;;;;5104533;28;20201;-78
2023/04/13 00:32:41;;;;;;;14.17;6.53;;;4.80;99.90;;;;;;5104457;28;20207;-78
2023/04/13 00:35:09;;;;;;;14.80;6.67;;;5.00;99.90;;;;;;5106333;28;20260;-77
2023/04/13 00:37:36;;;;;;;13.87;6.90;;;5.00;99.90;;;;;;5105285;28;20284;-78
2023/04/13 00:40:04;;;;;;;15.27;6.20;;;5.10;99.90;;;;;;5106082;28;20247;-78
2023/04/13 00:42:32;;;;;;;11.27;6.30;;;5.10;99.90;;;;;;5105177;28;20201;-77
2023/04/13 00:44:59;;;;;;;13.90;6.60;;;5.20;99.90;;;;;;5103501;28;20228;-78
2023/04/13 00:47:28;;;;;;;13.60;6.30;;;5.00;99.90;;;;;;5103890;28;20561;-78
2023/04/13 00:49:55;;;;;;;12.67;6.73;;;4.90;99.90;;;;;;5103311;28;20206;-78
2023/04/13 00:52:22;;;;;;;15.23;6.70;;;5.00;99.90;;;;;;5102891;28;20662;-78
2023/04/13 00:54:51;;;;;;;13.50;6.77;;;5.10;99.90;;;;;;5101996;28;20240;-77
2023/04/13 00:57:19;;;;;;;14.20;7.60;;;5.10;99.90;;;;;;5104287;28;20209;-77
2023/04/13 00:59:48;;;;;;;14.20;6.60;;;5.20;99.90;;;;;;5103518;28;20198;-78
2023/04/13 01:02:15;;;;;;;15.07;7.27;;;4.90;99.90;;;;;;5103307;28;20202;-77
2023/04/13 01:04:44;;;;;;;13.03;6.53;;;4.80;99.90;;;;;;5103114;28;20623;-78
2023/04/13 01:07:20;;;;;;;10.93;6.23;;;4.70;99.90;;;;;;5103615;28;20209;-78
2023/04/13 01:09:54;;;;;;;12.23;6.60;;;4.50;99.90;;;;;;5104262;28;20229;-78
2023/04/13 01:12:26;;;;;;;11.33;6.57;;;4.40;99.90;;;;;;5103967;28;20249;-77
2023/04/13 01:15:03;;;;;;;10.83;5.90;;;4.60;99.90;;;;;;5103643;28;20260;-77
2023/04/13 01:17:32;;;;;;;11.87;6.30;;;4.40;99.90;;;;;;5103322;28;20197;-77
2023/04/13 01:20:01;;;;;;;11.70;6.17;;;4.10;99.90;;;;;;5102010;28;20202;-77
2023/04/13 01:22:30;;;;;;;11.33;6.50;;;4.10;99.90;;;;;;5102735;28;20206;-77
2023/04/13 01:25:17;;;;;;;12.10;5.67;;;4.00;99.90;;;;;;5102407;28;20224;-77
2023/04/13 01:27:50;;;;;;;14.57;6.03;;;3.90;99.90;;;;;;5102732;28;20196;-77
2023/04/13 01:30:20;;;;;;;10.03;4.90;;;4.30;99.90;;;;;;5102215;28;20217;-77
2023/04/13 01:32:48;;;;;;;12.03;6.13;;;4.40;99.90;;;;;;5101056;28;20205;-77
2023/04/13 01:35:18;;;;;;;13.17;6.20;;;4.70;99.90;;;;;;5101137;28;20225;-77
2023/04/13 01:37:45;;;;;;;11.80;6.17;;;4.90;99.90;;;;;;5102293;28;20566;-77
2023/04/13 01:40:13;;;;;;;11.90;5.70;;;5.10;99.90;;;;;;5103537;28;20293;-77
2023/04/13 01:42:40;;;;;;;14.47;6.57;;;4.90;99.90;;;;;;5103916;28;20208;-77
2023/04/13 01:45:11;;;;;;;12.63;6.23;;;5.20;99.90;;;;;;5101465;28;20213;-77
2023/04/13 01:47:41;;;;;;;16.40;6.03;;;5.20;99.90;;;;;;5102384;28;20273;-77
2023/04/13 01:50:15;;;;;;;12.13;7.00;;;5.30;99.90;;;;;;5108186;28;20198;-77
2023/04/13 01:52:43;;;;;;;11.13;6.50;;;5.20;99.90;;;;;;5109551;28;20188;-77
2023/04/13 01:55:12;;;;;;;12.87;6.30;;;5.20;99.90;;;;;;5108821;28;20292;-78
2023/04/13 01:57:44;;;;;;;13.20;6.10;;;5.40;99.90;;;;;;5109076;28;20283;-77
2023/04/13 02:00:14;;;;;;;11.07;6.00;;;5.30;99.90;;;;;;5111200;28;20188;-77
2023/04/13 02:02:41;;;;;;;12.20;6.70;;;5.30;99.90;;;;;;5110732;28;20205;-77
2023/04/13 02:05:09;;;;;;;10.33;5.90;;;5.30;99.90;;;;;;5110024;28;20247;-77
2023/04/13 02:07:37;;;;;;;11.97;6.03;;;5.30;99.90;;;;;;5110972;28;20216;-77
2023/04/13 02:10:04;;;;;;;10.90;6.00;;;5.20;99.90;;;;;;5111143;28;20583;-77
2023/04/13 02:12:32;;;;;;;11.70;5.87;;;5.30;99.90;;;;;;5111346;28;20231;-78
2023/04/13 02:15:00;;;;;;;10.37;6.10;;;5.20;99.90;;;;;;5111445;28;20225;-77
2023/04/13 02:17:28;;;;;;;11.27;5.63;;;5.20;99.90;;;;;;5111017;28;20202;-77
2023/04/13 02:19:56;;;;;;;10.70;5.47;;;5.10;99.90;;;;;;5111248;28;20307;-78
2023/04/13 02:22:23;;;;;;;9.07;5.00;;;5.10;99.90;;;;;;5108222;28;20206;-77
2023/04/13 02:24:50;;;;;;;10.10;5.77;;;5.30;99.90;;;;;;5110350;28;20224;-77
2023/04/13 02:27:17;;;;;;;10.73;5.67;;;5.20;99.90;;;;;;5109972;28;20226;-77
2023/04/13 02:29:44;;;;;;;9.60;5.20;;;5.20;99.90;;;;;;5103394;28;20202;-77
2023/04/13 02:32:11;;;;;;;7.03;4.83;;;5.20;99.90;;;;;;5103174;28;20198;-77
2023/04/13 02:34:39;;;;;;;10.20;5.53;;;5.40;99.90;;;;;;5100427;28;20297;-77
2023/04/13 02:37:08;;;;;;;9.83;5.20;;;5.20;99.90;;;;;;5101165;28;20557;-77
2023/04/13 02:39:35;;;;;;;11.80;5.20;;;5.10;99.90;;;;;;5100073;28;20737;-79
2023/04/13 02:42:03;;;;;;;10.23;5.80;;;5.30;99.90;;;;;;5098623;28;20209;-79
2023/04/13 02:44:30;;;;;;;8.87;4.97;;;5.40;99.90;;;;;;5097971;28;20218;-76
2023/04/13 02:46:56;;;;;;;8.13;4.67;;;5.30;99.90;;;;;;5102932;28;20206;-77
2023/04/13 02:49:23;;;;;;;12.53;6.30;;;5.40;99.90;;;;;;5106137;28;20204;-77
2023/04/13 02:51:51;;;;;;;8.43;4.40;;;5.20;99.90;;;;;;5105955;28;20269;-77
2023/04/13 02:54:18;;;;;;;7.90;4.40;;;5.20;99.90;;;;;;5106726;28;20237;-77
2023/04/13 02:56:46;;;;;;;8.33;5.00;;;5.10;99.90;;;;;;5106963;28;20236;-77
2023/04/13 02:59:13;;;;;;;11.17;4.93;;;5.00;99.90;;;;;;5101374;28;20255;-77
2023/04/13 03:01:40;;;;;;;8.80;4.90;;;5.10;99.90;;;;;;5095700;28;20247;-76
2023/04/13 03:04:08;;;;;;;9.03;5.17;;;4.90;99.90;;;;;;5096265;28;20631;-77
2023/04/13 03:06:34;;;;;;;9.20;4.50;;;4.90;99.90;;;;;;5094610;28;20202;-77
2023/04/13 03:09:03;;;;;;;9.93;5.00;;;4.80;99.90;;;;;;5096465;28;20658;-77
2023/04/13 03:11:30;;;;;;;9.07;4.87;;;4.70;99.90;;;;;;5096728;28;20205;-76
2023/04/13 03:13:59;;;;;;;7.57;4.77;;;4.70;99.90;;;;;;5097513;28;20226;-77
2023/04/13 03:16:27;;;;;;;9.20;4.77;;;4.70;99.90;;;;;;5097470;28;20262;-74
2023/04/13 03:18:54;;;;;;;14.50;7.07;;;4.70;99.90;;;;;;5103367;28;20571;-78
2023/04/13 03:21:21;;;;;;;9.47;5.70;;;4.50;99.90;;;;;;5105310;28;20197;-78
2023/04/13 03:23:48;;;;;;;8.87;4.90;;;4.40;99.90;;;;;;5105555;28;20276;-78
2023/04/13 03:26:16;;;;;;;8.00;4.00;;;4.40;99.90;;;;;;5111530;28;20233;-78
2023/04/13 03:28:43;;;;;;;9.87;4.60;;;4.40;99.90;;;;;;5105034;28;20211;-76
2023/04/13 03:31:10;;;;;;;8.20;4.43;;;4.60;99.90;;;;;;5104460;28;20208;-77
2023/04/13 03:33:37;;;;;;;5.83;3.70;;;4.60;99.90;;;;;;5105605;28;20193;-77
2023/04/13 03:36:04;;;;;;;8.50;3.47;;;4.60;99.90;;;;;;5102200;28;20271;-76
2023/04/13 03:38:30;;;;;;;5.60;3.50;;;4.40;99.90;;;;;;5103964;28;20205;-77
2023/04/13 03:40:57;;;;;;;7.77;3.47;;;4.50;99.90;;;;;;5104389;28;20206;-78
2023/04/13 03:43:26;;;;;;;6.10;3.33;;;4.50;99.90;;;;;;5104284;28;20205;-78
2023/04/13 03:45:52;;;;;;;6.47;3.10;;;4.70;99.90;;;;;;5104976;28;20221;-78
2023/04/13 03:48:19;;;;;;;6.80;2.83;;;4.60;99.90;;;;;;5104652;28;20205;-78
2023/04/13 03:50:46;;;;;;;3.23;2.40;;;4.60;99.90;;;;;;5104950;28;20205;-77
2023/04/13 03:53:13;;;;;;;4.20;2.30;;;4.50;99.90;;;;;;5105214;28;20206;-78
2023/04/13 03:55:40;;;;;;;3.80;2.50;;;4.50;99.90;;;;;;5105520;28;20240;-78
2023/04/13 03:58:07;;;;;;;5.07;2.57;;;4.50;99.90;;;;;;5104588;28;20233;-77
2023/04/13 04:00:35;;;;;;;4.17;2.00;;;4.60;99.90;;;;;;5105328;28;20330;-78
2023/04/13 04:03:02;;;;;;;2.27;2.00;;;4.50;99.90;;;;;;5105097;28;20228;-78
2023/04/13 04:05:28;;;;;;;2.20;2.00;;;4.80;99.90;;;;;;5104576;28;20221;-78
2023/04/13 04:07:55;;;;;;;2.60;2.00;;;4.60;99.90;;;;;;5104286;28;20237;-77
2023/04/13 04:10:22;;;;;;;1.93;1.63;;;4.60;99.90;;;;;;5104238;28;20296;-78
2023/04/13 04:12:50;;;;;;;4.23;2.07;;;4.60;99.90;;;;;;5103057;28;20298;-77
2023/04/13 04:15:17;;;;;;;2.80;1.97;;;4.80;99.90;;;;;;5103190;28;20244;-77
2023/04/13 04:17:45;;;;;;;5.03;2.27;;;4.70;99.90;;;;;;5104380;28;20204;-78
2023/04/13 04:20:13;;;;;;;4.33;2.07;;;4.70;99.90;;;;;;5104295;28;20613;-77
2023/04/13 04:22:40;;;;;;;3.60;1.80;;;4.70;99.90;;;;;;5103467;28;20657;-78
2023/04/13 04:25:08;;;;;;;1.53;1.43;;;4.70;99.90;;;;;;5103839;28;20226;-77
2023/04/13 04:27:37;;;;;;;1.77;1.40;;;4.70;99.90;;;;;;5102503;28;20649;-77
2023/04/13 04:30:04;;;;;;;3.93;1.63;;;5.10;99.90;;;;;;5103145;28;20251;-77
2023/04/13 04:32:33;;;;;;;2.47;1.50;;;5.10;99.90;;;;;;5103049;28;20231;-78
2023/04/13 04:35:02;;;;;;;2.33;1.20;;;5.30;99.90;;;;;;5103208;28;20241;-77
2023/04/13 04:37:36;;;;;;;2.67;1.30;;;5.40;99.90;;;;;;5101332;28;20251;-77
2023/04/13 04:40:06;;;;;;;1.53;1.37;;;5.60;99.90;;;;;;5100509;28;20254;-78
2023/04/13 04:42:33;;;;;;;1.80;0.90;;;5.80;99.90;;;;;;5103078;28;20586;-77
2023/04/13 04:45:00;;;;;;;1.47;1.00;;;5.80;99.90;;;;;;5101798;28;20252;-77
2023/04/13 04:47:29;;;;;;;4.63;1.40;;;6.00;99.90;;;;;;5101056;28;20201;-77
2023/04/13 04:49:56;;;;;;;1.20;0.90;;;6.20;99.90;;;;;;5101891;28;20213;-77
2023/04/13 04:52:25;;;;;;;3.17;1.10;;;6.20;99.90;;;;;;5102201;28;20197;-78
2023/04/13 04:54:52;;;;;;;3.70;0.93;;;6.10;99.90;;;;;;5102359;28;20228;-78
2023/04/13 04:57:19;;;;;;;1.70;0.97;;;6.30;99.90;;;;;;5101527;28;20197;-78
2023/04/13 04:59:48;;;;;;;1.03;1.00;;;6.50;99.90;;;;;;5102212;28;20268;-77
2023/04/13 05:02:14;;;;;;;2.40;1.10;;;6.50;99.90;;;;;;5102178;28;20216;-78
2023/04/13 05:04:41;;;;;;;1.40;1.00;;;6.60;99.90;;;;;;5101891;28;20221;-77
2023/04/13 05:07:09;;;;;;;2.93;1.00;;;6.60;99.90;;;;;;5101835;28;20207;-78
2023/04/13 05:09:37;;;;;;;1.07;0.90;;;6.70;99.90;;;;;;5101487;28;20217;-77
2023/04/13 05:12:04;;;;;;;1.50;1.00;;;6.80;99.90;;;;;;5103436;28;20186;-77
2023/04/13 05:14:31;;;;;;;2.83;0.90;;;7.20;99.90;;;;;;5099990;28;20285;-77
2023/04/13 05:16:59;;;;;;;2.67;0.80;;;8.30;99.90;;;;;;5101677;28;20288;-78
2023/04/13 05:19:26;;;;;;;1.30;1.13;;;9.10;99.90;;;;;;5102850;28;20202;-77
2023/04/13 05:21:53;;;;;;;1.50;0.80;;;8.70;99.90;;;;;;5102617;28;20205;-78
2023/04/13 05:24:19;;;;;;;1.30;0.90;;;8.50;99.90;;;;;;5104789;28;20228;-77
2023/04/13 05:26:47;;;;;;;1.93;0.93;;;8.30;99.90;;;;;;5107226;28;20708;-77
2023/04/13 05:29:14;;;;;;;2.07;1.50;;;8.90;99.90;;;;;;5109511;28;20566;-77
2023/04/13 05:31:41;;;;;;;3.57;0.80;;;8.90;99.90;;;;;;5101719;28;20205;-77
2023/04/13 05:34:08;;;;;;;2.13;0.70;;;8.30;99.90;;;;;;5099231;28;20221;-76
2023/04/13 05:36:35;;;;;;;3.13;1.00;;;8.20;99.90;;;;;;5098784;28;20208;-77
2023/04/13 05:39:03;;;;;;;1.47;0.70;;;7.80;99.90;;;;;;5098893;28;20208;-77
2023/04/13 05:41:30;;;;;;;4.23;1.27;;;7.70;99.90;;;;;;5107329;28;20254;-77
2023/04/13 05:43:58;;;;;;;0.97;0.53;;;7.90;99.90;;;;;;5106827;28;20764;-77
2023/04/13 05:46:25;;;;;;;2.60;0.87;;;7.70;99.90;;;;;;5106229;28;20574;-76
2023/04/13 05:48:51;;;;;;;2.43;1.00;;;7.60;99.90;;;;;;5106106;28;20216;-77
2023/04/13 05:51:18;;;;;;;4.10;1.10;;;7.60;99.90;;;;;;5107322;28;20216;-77
2023/04/13 05:53:46;;;;;;;1.93;0.93;;;7.60;99.90;;;;;;5107349;28;20249;-76
2023/04/13 05:56:12;;;;;;;1.27;1.03;;;7.90;99.90;;;;;;5108571;28;20233;-77
2023/04/13 05:58:39;;;;;;;2.30;0.90;;;8.90;99.90;;;;;;5108946;28;20213;-77
2023/04/13 06:01:11;;;;;;;2.37;1.00;;;9.60;99.90;;;;;;5108469;28;20209;-77
2023/04/13 06:03:37;;;;;;;1.47;0.60;;;10.50;99.90;;;;;;5109486;28;20190;-77
2023/04/13 06:06:05;;;;;;;1.27;0.80;;;9.50;99.90;;;;;;5107707;28;20598;-77
2023/04/13 06:08:32;;;;;;;3.60;1.10;;;8.80;99.90;;;;;;5106590;28;20212;-77
2023/04/13 06:10:59;;;;;;;1.50;0.90;;;8.50;99.90;;;;;;5106329;28;20213;-78
2023/04/13 06:13:26;;;;;;;2.43;0.97;;;8.60;99.90;;;;;;5106855;28;20654;-77
2023/04/13 06:15:53;;;;;;;1.03;0.73;;;10.20;99.90;;;;;;5107137;28;20227;-77
2023/04/13 06:18:21;;;;;;;0.87;0.53;;;11.00;99.90;;;;;;5106393;28;20210;-77
2023/04/13 06:20:48;;;;;;;2.30;0.90;;;10.80;99.90;;;;;;5106755;28;20224;-77
2023/04/13 06:23:15;;;;;;;0.87;0.70;;;11.30;99.90;;;;;;5106287;28;20269;-78
2023/04/13 06:25:42;;;;;;;1.60;1.17;;;11.80;99.90;;;;;;5106981;28;20629;-78
2023/04/13 06:28:09;;;;;;;2.53;0.97;;;11.40;99.90;;;;;;5107928;28;20213;-77
2023/04/13 06:30:36;;;;;;;1.90;1.00;;;11.20;99.90;;;;;;5106617;28;20568;-77
2023/04/13 06:33:03;;;;;;;1.10;0.70;;;10.10;99.90;;;;;;5107417;28;20205;-77
2023/04/13 06:35:32;;;;;;;2.33;0.97;;;9.60;99.90;;;;;;5105425;28;20251;-78
2023/04/13 06:38:01;;;;;;;0.40;0.40;;;9.30;99.90;;;;;;5106048;28;20217;-76
2023/04/13 06:40:30;;;;;;;4.27;1.00;;;9.10;99.90;;;;;;5106675;28;20201;-78
2023/04/13 06:42:57;;;;;;;2.27;0.80;;;9.00;99.90;;;;;;5107025;28;20233;-77
2023/04/13 06:45:24;;;;;;;2.37;0.87;;;8.80;99.90;;;;;;5105102;28;20220;-77
2023/04/13 06:47:53;;;;;;;1.67;0.70;;;8.90;99.90;;;;;;5105781;28;20738;-77
2023/04/13 06:50:20;;;;;;;1.10;0.87;;;8.90;99.90;;;;;;5105479;28;20201;-77
2023/04/13 06:52:48;;;;;;;0.97;0.70;;;9.00;99.90;;;;;;5105544;28;20288;-77
2023/04/13 06:55:16;;;;;;;3.50;1.40;;;9.00;99.90;;;;;;5106429;28;20225;-77
2023/04/13 06:57:43;;;;;;;0.87;0.67;;;9.00;99.90;;;;;;5107895;28;20260;-77
2023/04/13 07:00:13;;;;;;;3.50;0.70;;;9.00;99.90;;;;;;5107998;28;20208;-77
2023/04/13 07:02:41;;;;;;;2.67;0.67;;;10.40;99.90;;;;;;5108034;28;20206;-77
2023/04/13 07:05:10;;;;;;;2.93;0.93;;;10.40;99.90;;;;;;5108589;28;20218;-78
2023/04/13 07:07:37;;;;;;;0.70;0.60;;;11.00;99.90;;;;;;5108736;28;20197;-77
2023/04/13 07:10:06;;;;;;;4.03;1.10;;;11.00;99.90;;;;;;5104724;28;20294;-77
2023/04/13 07:12:34;;;;;;;0.53;0.50;;;10.60;99.90;;;;;;5108601;28;20274;-78
2023/04/13 07:15:01;;;;;;;1.90;0.80;;;11.00;99.90;;;;;;5108479;28;20294;-78
2023/04/13 07:17:28;;;;;;;0.87;0.70;;;10.70;99.90;;;;;;5107756;28;20281;-77
2023/04/13 07:19:55;;;;;;;3.13;0.80;;;10.60;99.90;;;;;;5108110;28;20229;-77
2023/04/13 07:22:22;;;;;;;1.20;0.70;;;10.40;99.90;;;;;;5106636;28;20265;-78
2023/04/13 07:24:48;;;;;;;2.13;0.60;;;10.30;99.90;;;;;;5108799;28;20221;-77
2023/04/13 07:27:17;;;;;;;1.23;0.90;;;10.10;99.90;;;;;;5108905;28;20202;-77
2023/04/13 07:29:43;;;;;;;2.30;0.70;;;10.20;99.90;;;;;;5106350;28;20225;-77
2023/04/13 07:32:10;;;;;;;4.70;0.90;;;10.30;99.90;;;;;;5109036;28;20209;-77
2023/04/13 07:34:37;;;;;;;1.57;0.80;;;10.30;99.90;;;;;;5107965;28;20221;-77
2023/04/13 07:37:04;;;;;;;1.57;1.00;;;10.20;99.90;;;;;;5108400;28;20225;-78
2023/04/13 07:39:31;;;;;;;3.53;1.13;;;10.50;99.90;;;;;;5107053;28;20220;-77
2023/04/13 07:41:58;;;;;;;1.67;0.90;;;10.90;99.90;;;;;;5109982;28;20201;-77
2023/04/13 07:44:26;;;;;;;3.33;1.07;;;10.70;99.90;;;;;;5110107;28;20247;-78
2023/04/13 07:46:55;;;;;;;1.70;0.60;;;10.60;99.90;;;;;;5108690;28;20229;-78
2023/04/13 07:49:22;;;;;;;1.53;0.50;;;10.50;99.90;;;;;;5107967;28;20231;-77
2023/04/13 07:51:49;;;;;;;1.90;0.70;;;10.70;99.90;;;;;;5109102;28;20688;-78
2023/04/13 07:54:16;;;;;;;4.00;0.90;;;10.60;99.90;;;;;;5108362;28;20225;-78
2023/04/13 07:56:42;;;;;;;4.43;0.80;;;10.90;99.90;;;;;;5107217;28;20245;-78
2023/04/13 07:59:09;;;;;;;2.00;0.70;;;10.70;99.90;;;;;;5107222;28;20197;-78
2023/04/13 08:01:38;;;;;;;3.00;0.70;;;10.70;99.90;;;;;;5106934;28;20208;-77
2023/04/13 08:04:05;;;;;;;2.53;0.70;;;10.70;99.90;;;;;;5107209;28;20222;-78
2023/04/13 08:06:32;;;;;;;1.47;0.60;;;10.60;99.90;;;;;;5107808;28;20221;-78
2023/04/13 08:08:59;;;;;;;1.20;0.53;;;10.50;99.90;;;;;;5107633;28;20653;-78
2023/04/13 08:11:26;;;;;;;5.73;1.10;;;10.40;99.90;;;;;;5107795;28;20220;-77
2023/04/13 08:13:52;;;;;;;2.37;0.83;;;10.30;99.90;;;;;;5107900;28;20376;-77
2023/04/13 08:16:19;;;;;;;2.63;0.90;;;10.30;99.90;;;;;;5108004;28;20221;-78
2023/04/13 08:18:47;;;;;;;5.50;0.57;;;10.30;99.90;;;;;;5106065;28;20204;-78
2023/04/13 08:21:14;;;;;;;2.37;0.87;;;10.20;99.90;;;;;;5105442;28;20212;-78
2023/04/13 08:23:41;;;;;;;2.43;0.70;;;10.40;99.90;;;;;;5106360;28;20264;-78
2023/04/13 08:26:15;;;;;;;1.20;0.80;;;10.60;99.90;;;;;;5105781;28;20198;-78
2023/04/13 08:28:42;;;;;;;2.37;0.70;;;10.70;99.90;;;;;;5105526;28;20545;-78
2023/04/13 08:31:09;;;;;;;5.37;1.60;;;10.70;99.90;;;;;;5105311;28;20674;-78
2023/04/13 08:33:35;;;;;;;1.23;0.67;;;10.80;99.90;;;;;;5105984;28;20212;-77
2023/04/13 08:36:04;;;;;;;1.67;0.60;;;10.90;99.90;;;;;;5105830;28;20222;-78
2023/04/13 08:38:32;;;;;;;0.50;0.40;;;11.00;99.90;;;;;;5106144;28;20263;-78
2023/04/13 08:41:01;;;;;;;2.10;0.70;;;11.00;99.90;;;;;;5104759;28;20201;-78
2023/04/13 08:43:28;;;;;;;1.63;0.43;;;11.10;99.90;;;;;;5105607;28;20205;-77
2023/04/13 08:45:55;;;;;;;2.37;0.70;;;11.40;99.90;;;;;;5103624;28;20198;-78
2023/04/13 08:48:22;;;;;;;1.73;0.93;;;11.70;99.90;;;;;;5106144;28;20208;-78
2023/04/13 08:50:51;;;;;;;2.13;0.50;;;11.60;99.90;;;;;;5105767;28;20209;-78
2023/04/13 08:53:19;;;;;;;0.83;0.80;;;11.40;99.90;;;;;;5105513;28;20251;-78
2023/04/13 08:55:47;;;;;;;2.27;0.73;;;11.60;99.90;;;;;;5105068;28;20293;-77
2023/04/13 08:58:18;;;;;;;3.93;0.93;;;11.80;99.90;;;;;;5106235;28;20225;-78
2023/04/13 09:00:46;;;;;;;1.40;0.73;;;12.10;99.90;;;;;;5102894;28;20182;-77
2023/04/13 09:03:15;;;;;;;3.60;0.70;;;11.90;99.90;;;;;;5106191;28;20206;-78
2023/04/13 09:05:42;;;;;;;1.23;0.93;;;11.40;99.90;;;;;;5108096;28;20213;-77
2023/04/13 09:08:12;;;;;;;2.43;0.87;;;11.40;99.90;;;;;;5107656;28;20245;-78
2023/04/13 09:10:41;;;;;;;2.47;1.40;;;11.30;99.90;;;;;;5106054;28;20216;-77
2023/04/13 09:13:08;;;;;;;1.23;0.57;;;11.10;99.90;;;;;;5104637;28;20886;-77
2023/04/13 09:15:35;;;;;;;3.80;0.77;;;10.90;99.90;;;;;;5101813;28;20255;-77
2023/04/13 09:18:08;;;;;;;2.30;0.70;;;10.90;99.90;;;;;;5105688;28;20201;-77
2023/04/13 09:20:36;;;;;;;2.00;0.70;;;11.00;99.90;;;;;;5106189;28;20201;-78
2023/04/13 09:23:13;;;;;;;1.60;1.00;;;11.60;99.90;;;;;;5105241;28;20212;-78
2023/04/13 09:25:42;;;;;;;2.90;1.00;;;11.30;99.90;;;;;;5103768;28;20218;-77
2023/04/13 09:28:16;;;;;;;1.10;1.00;;;10.70;99.90;;;;;;5104809;28;20197;-78
2023/04/13 09:30:42;;;;;;;2.90;1.10;;;10.70;99.90;;;;;;5103132;28;20186;-78
2023/04/13 09:33:10;;;;;;;2.00;0.87;;;11.00;99.90;;;;;;5103184;28;20934;-78
2023/04/13 09:35:38;;;;;;;2.37;0.80;;;11.40;99.90;;;;;;5103829;28;20225;-78
2023/04/13 09:38:07;;;;;;;1.30;0.83;;;11.40;99.90;;;;;;5104396;28;20205;-78
2023/04/13 09:40:36;;;;;;;1.43;0.90;;;11.50;99.90;;;;;;5103762;28;20268;-78
2023/04/13 09:43:06;;;;;;;1.30;1.20;;;12.00;99.90;;;;;;5104133;28;20205;-77
2023/04/13 09:45:34;;;;;;;2.03;1.07;;;12.30;99.90;;;;;;5102752;28;20636;-78
2023/04/13 09:48:02;;;;;;;2.20;1.23;;;11.90;99.90;;;;;;5103435;28;20260;-77
2023/04/13 09:50:31;;;;;;;0.70;0.70;;;11.80;99.90;;;;;;5083623;28;20261;-78
2023/04/13 09:53:01;;;;;;;2.30;0.90;;;11.80;99.90;;;;;;5083190;28;20206;-77
2023/04/13 09:55:29;;;;;;;1.33;1.00;;;12.00;99.90;;;;;;5082779;28;20275;-77
2023/04/13 09:57:56;;;;;;;0.90;0.90;;;12.50;99.90;;;;;;5082897;28;20270;-78
2023/04/13 10:00:24;;;;;;;2.93;0.90;;;12.70;99.90;;;;;;5083738;28;20206;-78
2023/04/13 10:02:54;;;;;;;1.33;1.23;;;13.20;99.90;;;;;;5082523;28;20289;-77
2023/04/13 10:05:23;;;;;;;1.07;0.93;;;12.80;99.90;;;;;;5081693;28;20228;-78
2023/04/13 10:07:50;;;;;;;1.50;1.10;;;12.70;99.90;;;;;;5082404;28;20237;-78
2023/04/13 10:10:18;;;;;;;1.00;0.93;;;12.40;99.90;;;;;;5082342;28;20220;-77
2023/04/13 10:12:49;;;;;;;2.20;1.10;;;11.90;99.90;;;;;;5085333;28;20664;-78
2023/04/13 10:15:37;;;;;;;1.33;1.07;;;12.50;99.90;;;;;;5085643;28;20238;-76
2023/04/13 10:18:15;;;;;;;1.20;1.10;;;13.10;99.90;;;;;;5085527;28;20182;-78
2023/04/13 10:20:43;;;;;;;2.40;1.27;;;13.30;8.20;;;;;;5084797;28;20190;-77
2023/04/13 10:23:10;;;;;;;1.17;1.07;;;13.60;29.40;;;;;;5081961;28;20232;-76
2023/04/13 10:25:38;;;;;;;1.03;1.00;;;13.90;1.00;;;;;;5081202;28;20237;-78
2023/04/13 10:28:05;;;;;;;2.40;1.40;;;14.30;1.00;;;;;;5081287;28;20269;-78
2023/04/13 10:30:33;;;;;;;1.20;0.80;;;14.10;99.90;;;;;;5100218;28;20223;-77
2023/04/13 10:33:05;;;;;;;1.60;1.30;;;13.70;1.00;;;;;;5102587;28;20201;-77
2023/04/13 10:35:35;;;;;;;1.43;1.20;;;13.60;75.70;;;;;;5103959;28;20384;-78
2023/04/13 10:38:02;;;;;;;4.10;2.27;;;14.20;1.00;;;;;;5106960;28;20226;-76
2023/04/13 10:40:29;;;;;;;1.90;0.97;;;14.70;1.00;;;;;;5105434;28;20567;-78
2023/04/13 10:42:56;;;;;;;2.33;1.20;;;14.70;99.90;;;;;;5106158;28;20269;-78
2023/04/13 10:45:25;;;;;;;3.10;1.00;;;14.80;99.90;;;;;;5105549;28;20225;-78
2023/04/13 10:47:53;;;;;;;0.98;0.98;;;14.50;1.00;;;;;;5106471;28;20668;-79
2023/04/13 10:50:21;;;;;;;1.30;1.20;;;14.60;1.00;;;;;;5105605;28;20197;-79
2023/04/13 10:53:00;;;;;;;2.05;1.50;;;14.20;1.00;;;;;;5105821;28;20231;-77
2023/04/13 10:55:27;;;;;;;2.00;1.27;;;14.30;1.00;;;;;;5103768;28;20228;-78
2023/04/13 10:57:55;;;;;;;1.33;0.90;;;14.30;99.90;;;;;;5102901;28;20218;-78
2023/04/13 11:00:23;;;;;;;1.60;1.10;;;14.30;99.90;;;;;;5101835;28;20250;-80
2023/04/13 11:02:52;;;;;;;0.90;0.90;;;14.10;1.00;;;;;;5102946;28;20307;-77
2023/04/13 11:05:21;;;;;;;2.80;1.07;;;14.50;1.00;;;;;;5103096;28;20253;-77
2023/04/13 11:07:49;;;;;;;2.23;1.17;;;15.00;1.00;;;;;;5103299;28;20198;-77
2023/04/13 11:10:16;;;;;;;1.17;0.80;;;14.70;1.00;;;;;;5104804;28;20209;-78
2023/04/13 11:12:50;;;;;;;1.35;0.80;;;15.10;1.00;;;;;;5104485;28;20232;-77
2023/04/13 11:15:20;;;;;;;1.27;0.80;;;15.60;1.00;;;;;;5104484;28;20290;-78
2023/04/13 11:17:51;;;;;;;2.20;1.00;;;15.40;1.00;;;;;;5105623;28;20689;-77
2023/04/13 11:20:20;;;;;;;2.10;1.05;;;15.70;99.90;;;;;;5107166;28;20186;-76
2023/04/13 11:22:47;;;;;;;0.95;0.90;;;16.10;1.00;;;;;;5106928;28;20661;-78
2023/04/13 11:25:14;;;;;;;1.08;0.85;;;16.40;99.90;;;;;;5103327;28;20217;-78
2023/04/13 11:27:40;;;;;;;1.00;0.90;;;16.40;99.90;;;;;;5103820;28;20194;-78
2023/04/13 11:30:09;;;;;;;2.67;1.10;;;15.70;1.00;;;;;;5103461;28;20211;-78
2023/04/13 11:32:42;;;;;;;1.88;1.20;;;15.20;1.00;;;;;;5104029;28;20201;-77
2023/04/13 11:35:10;;;;;;;1.00;0.90;;;14.90;1.00;;;;;;5105086;28;20221;-79
2023/04/13 11:37:40;;;;;;;1.20;0.90;;;14.60;1.00;;;;;;5105652;28;20231;-78
2023/04/13 11:40:13;;;;;;;1.17;1.00;;;14.80;1.00;;;;;;5104329;28;20269;-77
2023/04/13 11:42:42;;;;;;;1.33;1.10;;;14.90;1.00;;;;;;5103775;28;20622;-78
2023/04/13 11:45:11;;;;;;;1.95;1.20;;;14.80;1.00;;;;;;5103313;28;20228;-77
2023/04/13 11:47:38;;;;;;;1.10;1.10;;;14.70;1.00;;;;;;5105061;28;20194;-78
2023/04/13 11:50:06;;;;;;;1.30;1.20;;;14.40;1.00;;;;;;5104548;28;20805;-79
2023/04/13 11:52:35;;;;;;;1.00;1.00;;;14.20;99.90;;;;;;5104987;28;20608;-76
2023/04/13 11:55:05;;;;;;;1.50;1.40;;;14.30;99.90;;;;;;5103143;28;20231;-79
2023/04/13 11:57:32;;;;;;;1.50;1.40;;;14.60;99.90;;;;;;5103155;28;20213;-82
2023/04/13 11:59:59;;;;;;;1.40;1.30;;;14.50;99.90;;;;;;5089715;28;20203;-82
2023/04/13 12:02:26;;;;;;;1.40;1.30;;;14.30;99.90;;;;;;5096372;28;20229;-82
2023/04/13 12:04:53;;;;;;;1.63;1.30;;;14.20;99.90;;;;;;5084356;28;20229;-83
2023/04/13 12:07:20;;;;;;;1.47;1.30;;;14.30;99.90;;;;;;5095076;28;20204;-86
2023/04/13 12:09:49;;;;;;;1.43;1.30;;;14.30;99.90;;;;;;5104907;28;20208;-84
2023/04/13 12:12:20;;;;;;;1.37;1.27;;;14.40;99.90;;;;;;5105063;28;20197;-82
2023/04/13 12:14:54;;;;;;;1.02;1.00;;;15.10;99.90;;;;;;5104247;28;20221;-85
2023/04/13 12:17:22;;;;;;;1.20;1.20;;;14.70;1.00;;;;;;5105505;28;20239;-84
2023/04/13 12:19:54;;;;;;;1.17;1.17;;;15.30;14.20;;;;;;5106958;28;20229;-83
2023/04/13 12:22:22;;;;;;;1.30;1.20;;;15.20;1.00;;;;;;5101965;28;20217;-82
2023/04/13 12:24:48;;;;;;;1.58;1.10;;;15.10;1.00;;;;;;5099141;28;20228;-82
2023/04/13 12:27:16;;;;;;;1.05;0.95;;;14.60;1.00;;;;;;5102860;28;20228;-84
2023/04/13 12:29:44;;;;;;;1.02;1.02;;;14.40;1.00;;;;;;5104493;28;20267;-83
2023/04/13 12:32:12;;;;;;;1.40;1.23;;;14.60;1.00;;;;;;5104049;28;20209;-84
2023/04/13 12:34:40;;;;;;;1.63;1.53;;;14.50;1.00;;;;;;5101874;28;20294;-85
2023/04/13 12:37:07;;;;;;;2.47;1.80;;;14.30;1.00;;;;;;5104161;28;20243;-85
2023/04/13 12:39:34;;;;;;;1.80;1.70;;;14.40;1.00;;;;;;5103620;28;20234;-84
2023/04/13 12:42:01;;;;;;;1.70;1.60;;;14.10;1.00;;;;;;5101553;28;20211;-81
2023/04/13 12:44:28;;;;;;;2.37;1.30;;;13.90;1.00;;;;;;5102191;28;20217;-84
2023/04/13 12:46:56;;;;;;;1.30;1.30;;;14.60;1.00;;;;;;5101047;28;20208;-85
2023/04/13 12:49:23;;;;;;;1.40;1.30;;;15.10;1.00;;;;;;5088871;28;20293;-85
2023/04/13 12:51:50;;;;;;;2.43;1.47;;;15.30;1.00;;;;;;5093197;28;20284;-84
2023/04/13 12:54:16;;;;;;;1.83;1.60;;;15.60;1.00;;;;;;5100377;28;20300;-86